Time;durP1;ratioP1;P1;durP2;ratioP2;P2;SDS_P1;SDS_P2;PMS_P1;PMS_P2;Temp;Humidity;BMP_temperature;BMP_pressure;BME280_temperature;BME280_humidity;BME280_pressure;Samples;Min_cycle;Max_cycle;Signal;HPM_P1;HPM_P2
2023/02/23 00:01:20;;;;;;;38.25;22.23;;;9.40;99.90;;;;;;5047795;28;20036;-66
2023/02/23 00:03:48;;;;;;;39.15;23.67;;;9.30;99.90;;;;;;5047541;28;20021;-67
2023/02/23 00:06:14;;;;;;;40.15;22.10;;;9.30;99.90;;;;;;5027455;28;20417;-67
2023/02/23 00:08:40;;;;;;;39.70;22.67;;;9.30;99.90;;;;;;5054407;28;20028;-67
2023/02/23 00:11:12;;;;;;;43.47;23.02;;;9.30;99.90;;;;;;5049901;28;20029;-67
2023/02/23 00:13:39;;;;;;;43.40;24.98;;;9.30;99.90;;;;;;5047857;28;20029;-66
2023/02/23 00:16:12;;;;;;;41.92;24.08;;;9.30;99.90;;;;;;5027344;28;20067;-66
2023/02/23 00:18:44;;;;;;;40.83;23.20;;;9.30;99.90;;;;;;5032362;28;20040;-67
2023/02/23 00:21:23;;;;;;;42.15;24.00;;;9.30;99.90;;;;;;5047802;28;20037;-66
2023/02/23 00:23:51;;;;;;;42.95;24.13;;;9.30;99.90;;;;;;5049164;28;20086;-67
2023/02/23 00:26:21;;;;;;;44.58;24.80;;;9.30;99.90;;;;;;5049319;28;20017;-67
2023/02/23 00:28:48;;;;;;;40.63;23.98;;;9.30;99.90;;;;;;5030211;28;20051;-66
2023/02/23 00:31:14;;;;;;;44.08;24.73;;;9.30;99.90;;;;;;5046896;28;20029;-66
2023/02/23 00:33:41;;;;;;;47.80;24.42;;;9.40;99.90;;;;;;5044854;28;20029;-66
2023/02/23 00:36:12;;;;;;;45.65;26.38;;;9.40;99.90;;;;;;5044031;28;20059;-67
2023/02/23 00:38:38;;;;;;;42.08;24.42;;;9.40;99.90;;;;;;5054059;28;20032;-66
2023/02/23 00:41:29;;;;;;;39.05;24.92;;;9.40;99.90;;;;;;5041389;28;20021;-66
2023/02/23 00:43:59;;;;;;;44.88;25.77;;;9.30;99.90;;;;;;5041664;28;20033;-66
2023/02/23 00:46:27;;;;;;;47.05;26.02;;;9.30;99.90;;;;;;5043932;28;20122;-66
2023/02/23 00:48:54;;;;;;;43.70;27.20;;;9.20;99.90;;;;;;5039643;28;20025;-66
2023/02/23 00:51:21;;;;;;;45.38;27.85;;;9.30;99.90;;;;;;5039119;28;20033;-66
2023/02/23 00:53:47;;;;;;;50.75;28.13;;;9.30;99.90;;;;;;5046541;28;20079;-66
2023/02/23 00:56:14;;;;;;;49.88;27.73;;;9.20;99.90;;;;;;5042185;28;20442;-66
2023/02/23 00:58:41;;;;;;;49.25;29.25;;;9.20;99.90;;;;;;5047185;28;20503;-67
2023/02/23 01:01:08;;;;;;;47.63;27.77;;;9.10;99.90;;;;;;5025918;28;20048;-67
2023/02/23 01:03:34;;;;;;;49.42;27.90;;;9.10;99.90;;;;;;5047304;28;20375;-67
2023/02/23 01:06:04;;;;;;;45.63;26.13;;;9.10;99.90;;;;;;5048250;28;20050;-66
2023/02/23 01:08:33;;;;;;;45.97;28.05;;;9.10;99.90;;;;;;5029898;28;20461;-67
2023/02/23 01:11:15;;;;;;;47.80;26.63;;;9.10;99.90;;;;;;5042162;28;20483;-67
2023/02/23 01:13:43;;;;;;;47.20;28.20;;;9.10;99.90;;;;;;5044742;28;20033;-66
2023/02/23 01:16:15;;;;;;;43.75;26.55;;;9.00;99.90;;;;;;5028886;28;20094;-66
2023/02/23 01:18:43;;;;;;;46.65;24.67;;;9.00;99.90;;;;;;5048417;28;20021;-66
2023/02/23 01:21:41;;;;;;;45.88;27.35;;;9.00;99.90;;;;;;5028933;28;20116;-67
2023/02/23 01:24:10;;;;;;;43.28;26.40;;;8.90;99.90;;;;;;5007624;28;20056;-66
2023/02/23 01:26:38;;;;;;;47.65;25.33;;;8.90;99.90;;;;;;5041713;28;20025;-67
2023/02/23 01:29:07;;;;;;;49.58;25.88;;;8.90;99.90;;;;;;5039942;28;20040;-67
2023/02/23 01:31:34;;;;;;;43.13;24.77;;;9.00;99.90;;;;;;5038481;28;20022;-67
2023/02/23 01:34:01;;;;;;;44.08;25.75;;;8.90;99.90;;;;;;5040162;28;20071;-67
2023/02/23 01:36:28;;;;;;;44.42;26.58;;;9.00;99.90;;;;;;5047316;28;20021;-67
2023/02/23 01:38:58;;;;;;;40.53;23.92;;;9.00;99.90;;;;;;5043428;28;20024;-67
2023/02/23 01:41:25;;;;;;;46.30;24.92;;;9.00;99.90;;;;;;5046896;28;20078;-67
2023/02/23 01:44:02;;;;;;;45.75;26.50;;;8.90;99.90;;;;;;5041224;28;20033;-67
2023/02/23 01:46:31;;;;;;;42.30;25.83;;;9.00;99.90;;;;;;5036704;28;20029;-67
2023/02/23 01:48:57;;;;;;;47.97;26.50;;;8.90;99.90;;;;;;5034388;28;20025;-67
2023/02/23 01:51:26;;;;;;;47.67;27.92;;;9.00;99.90;;;;;;5037368;28;20036;-67
2023/02/23 01:53:59;;;;;;;50.85;26.65;;;9.00;99.90;;;;;;5036587;28;20391;-67
2023/02/23 01:56:31;;;;;;;47.27;25.10;;;8.90;99.90;;;;;;5028618;28;21071;-66
2023/02/23 01:59:01;;;;;;;44.97;26.23;;;8.90;99.90;;;;;;5037307;28;20283;-67
2023/02/23 02:01:29;;;;;;;43.55;25.80;;;8.90;99.90;;;;;;5037422;28;20054;-67
2023/02/23 02:04:00;;;;;;;51.92;27.38;;;8.90;99.90;;;;;;5044423;28;20491;-67
2023/02/23 02:06:27;;;;;;;58.00;29.23;;;8.90;99.90;;;;;;5039701;28;20120;-67
2023/02/23 02:08:56;;;;;;;51.17;26.35;;;8.90;99.90;;;;;;5040758;28;20036;-67
2023/02/23 02:11:29;;;;;;;49.65;28.30;;;8.90;99.90;;;;;;5044008;28;20108;-67
2023/02/23 02:14:19;;;;;;;53.50;26.58;;;8.90;99.90;;;;;;5044698;28;20063;-67
2023/02/23 02:17:40;;;;;;;49.28;27.77;;;8.90;99.90;;;;;;5004705;28;21915;-67
2023/02/23 02:20:25;;;;;;;56.42;28.73;;;8.90;99.90;;;;;;4956152;28;20031;-67
2023/02/23 02:23:07;;;;;;;63.33;31.23;;;8.90;99.90;;;;;;5044210;28;20033;-67
2023/02/23 02:26:16;;;;;;;54.92;30.10;;;8.90;99.90;;;;;;5042310;28;20158;-67
2023/02/23 02:28:51;;;;;;;63.38;33.17;;;8.90;99.90;;;;;;5040390;28;20029;-67
2023/02/23 02:31:48;;;;;;;52.88;30.63;;;9.00;99.90;;;;;;5042490;28;20025;-67
2023/02/23 02:34:35;;;;;;;55.10;29.00;;;8.90;99.90;;;;;;5022634;28;20080;-67
2023/02/23 02:37:34;;;;;;;60.17;32.28;;;9.00;99.90;;;;;;5044570;28;20029;-66
2023/02/23 02:40:17;;;;;;;59.25;31.92;;;9.00;99.90;;;;;;5035484;28;20504;-67
2023/02/23 02:43:08;;;;;;;52.72;31.10;;;9.00;99.90;;;;;;5035863;28;20025;-67
2023/02/23 02:45:55;;;;;;;54.20;31.92;;;8.90;99.90;;;;;;5021160;28;20021;-67
2023/02/23 02:48:49;;;;;;;57.03;31.40;;;8.90;99.90;;;;;;5035105;28;20021;-67
2023/02/23 02:51:20;;;;;;;57.63;31.15;;;9.00;99.90;;;;;;5042838;28;20016;-67
2023/02/23 02:54:03;;;;;;;56.28;32.95;;;9.00;99.90;;;;;;5033260;28;20108;-67
2023/02/23 02:56:29;;;;;;;56.50;31.02;;;9.00;99.90;;;;;;5048257;28;20071;-66
2023/02/23 02:58:55;;;;;;;52.60;31.23;;;9.00;99.90;;;;;;5040911;28;20033;-67
2023/02/23 04:19:35;;;;;;;49.92;29.98;;;8.90;99.90;;;;;;5046215;28;20029;-66
2023/02/23 04:22:00;;;;;;;57.35;32.28;;;8.90;99.90;;;;;;5045687;28;20507;-66
2023/02/23 04:24:26;;;;;;;53.45;30.95;;;8.90;99.90;;;;;;5045998;28;20044;-67
2023/02/23 04:26:52;;;;;;;50.10;30.42;;;8.90;99.90;;;;;;5041606;28;20025;-66
2023/02/23 04:29:17;;;;;;;63.20;32.33;;;8.90;99.90;;;;;;5046720;28;20029;-67
2023/02/23 04:31:43;;;;;;;54.60;31.10;;;8.90;99.90;;;;;;5044874;28;20028;-67
2023/02/23 04:34:09;;;;;;;59.75;32.63;;;8.90;99.90;;;;;;5048721;28;20386;-67
2023/02/23 04:36:35;;;;;;;63.42;33.42;;;8.90;99.90;;;;;;5046331;28;20052;-66
2023/02/23 04:39:00;;;;;;;64.32;34.20;;;8.90;99.90;;;;;;5044149;28;20112;-67
2023/02/23 04:41:26;;;;;;;59.55;32.90;;;8.90;99.90;;;;;;5050558;28;20239;-67
2023/02/23 04:43:51;;;;;;;60.78;33.00;;;8.90;99.90;;;;;;5048501;28;20040;-67
2023/02/23 04:46:17;;;;;;;62.28;34.78;;;8.90;99.90;;;;;;5042126;28;20171;-66
2023/02/23 04:48:43;;;;;;;62.00;33.70;;;8.90;99.90;;;;;;5048178;28;20025;-66
2023/02/23 04:51:08;;;;;;;69.60;34.83;;;8.90;99.90;;;;;;5043337;28;20435;-67
2023/02/23 04:53:34;;;;;;;67.63;34.83;;;8.90;99.90;;;;;;5045282;28;20039;-66
2023/02/23 04:55:59;;;;;;;64.82;35.95;;;8.90;99.90;;;;;;5037769;28;20021;-66
2023/02/23 04:58:25;;;;;;;65.10;34.90;;;8.90;99.90;;;;;;5035833;28;20144;-67
2023/02/23 05:00:51;;;;;;;66.07;34.95;;;8.90;99.90;;;;;;5045170;28;20474;-66
2023/02/23 05:03:17;;;;;;;72.25;37.83;;;8.80;99.90;;;;;;5045418;28;20032;-66
2023/02/23 05:05:42;;;;;;;70.18;34.67;;;8.80;99.90;;;;;;5046529;28;20031;-66
2023/02/23 05:08:09;;;;;;;60.70;32.97;;;8.90;99.90;;;;;;5047627;28;20099;-66
2023/02/23 05:10:34;;;;;;;62.85;33.17;;;8.80;99.90;;;;;;5040815;28;20063;-66
2023/02/23 05:13:00;;;;;;;63.38;33.58;;;8.80;99.90;;;;;;5038392;28;20033;-66
2023/02/23 05:15:27;;;;;;;59.22;32.03;;;8.80;99.90;;;;;;5020686;28;20024;-66
2023/02/23 05:17:54;;;;;;;56.85;32.72;;;8.80;99.90;;;;;;5003551;28;20565;-66
2023/02/23 05:20:21;;;;;;;57.20;31.30;;;8.80;99.90;;;;;;5019796;28;20028;-66
2023/02/23 05:22:46;;;;;;;60.33;32.50;;;8.80;99.90;;;;;;5036372;28;20051;-66
2023/02/23 05:25:12;;;;;;;53.13;30.25;;;8.80;99.90;;;;;;5020617;28;20059;-66
2023/02/23 05:27:38;;;;;;;54.83;30.20;;;8.80;99.90;;;;;;5022901;28;20031;-66
2023/02/23 05:30:06;;;;;;;53.50;30.52;;;8.80;99.90;;;;;;5038148;28;20030;-66
2023/02/23 05:32:33;;;;;;;52.55;29.05;;;8.80;99.90;;;;;;5036956;28;20035;-66
2023/02/23 05:34:59;;;;;;;52.33;30.40;;;8.80;99.90;;;;;;5036059;28;20021;-66
2023/02/23 05:37:25;;;;;;;51.03;30.35;;;8.70;99.90;;;;;;5033489;28;20029;-66
2023/02/23 05:39:50;;;;;;;51.65;29.65;;;8.80;99.90;;;;;;5026096;28;20032;-67
2023/02/23 05:42:16;;;;;;;49.78;28.98;;;8.70;99.90;;;;;;5039089;28;20104;-66
2023/02/23 05:44:42;;;;;;;49.55;29.90;;;8.70;99.90;;;;;;5044497;28;20082;-66
2023/02/23 05:47:07;;;;;;;51.50;29.50;;;8.70;99.90;;;;;;5025833;28;20030;-66
2023/02/23 05:49:33;;;;;;;48.50;29.23;;;8.70;99.90;;;;;;5029719;28;20036;-67
2023/02/23 05:51:58;;;;;;;60.22;32.45;;;8.70;99.90;;;;;;5031005;28;20142;-66
2023/02/23 05:54:24;;;;;;;58.63;31.05;;;8.70;99.90;;;;;;5043943;28;20021;-67
2023/02/23 05:56:50;;;;;;;54.30;30.77;;;8.70;99.90;;;;;;5049597;28;20033;-66
2023/02/23 05:59:16;;;;;;;49.85;31.55;;;8.70;99.90;;;;;;5027550;28;20033;-67
2023/02/23 06:01:42;;;;;;;53.30;30.25;;;8.70;99.90;;;;;;5040608;28;20043;-67
2023/02/23 06:04:08;;;;;;;52.78;31.05;;;8.70;99.90;;;;;;5029842;28;20041;-67
2023/02/23 06:06:34;;;;;;;51.55;29.42;;;8.70;99.90;;;;;;5030240;28;20048;-67
2023/02/23 06:09:00;;;;;;;47.28;28.63;;;8.70;99.90;;;;;;5044196;28;20025;-66
2023/02/23 06:11:26;;;;;;;49.58;28.52;;;8.70;99.90;;;;;;5033799;28;20016;-67
2023/02/23 06:13:51;;;;;;;45.85;28.70;;;8.70;99.90;;;;;;5046549;28;20029;-67
2023/02/23 06:16:17;;;;;;;45.20;28.65;;;8.70;99.90;;;;;;5042122;28;20472;-67
2023/02/23 06:18:43;;;;;;;39.25;24.52;;;8.70;99.90;;;;;;5023052;28;20538;-66
2023/02/23 06:21:08;;;;;;;37.63;24.15;;;8.70;99.90;;;;;;5042864;28;20415;-66
2023/02/23 06:23:34;;;;;;;42.67;26.13;;;8.70;99.90;;;;;;5025069;28;20029;-67
2023/02/23 06:26:00;;;;;;;37.38;23.70;;;8.70;99.90;;;;;;5045011;28;20025;-66
2023/02/23 06:28:27;;;;;;;42.30;24.02;;;8.70;99.90;;;;;;5027720;28;20021;-66
2023/02/23 06:30:53;;;;;;;39.85;23.05;;;8.70;99.90;;;;;;5042754;28;20041;-67
2023/02/23 06:33:19;;;;;;;37.38;25.08;;;8.70;99.90;;;;;;5020615;28;20387;-67
2023/02/23 06:35:45;;;;;;;35.13;22.15;;;8.70;99.90;;;;;;5045832;28;20102;-66
2023/02/23 06:38:10;;;;;;;39.50;23.13;;;8.70;99.90;;;;;;5048043;28;20064;-67
2023/02/23 06:40:37;;;;;;;34.05;22.10;;;8.70;99.90;;;;;;5046447;28;20053;-67
2023/02/23 06:43:04;;;;;;;36.05;21.65;;;8.70;99.90;;;;;;5040059;28;20040;-67
2023/02/23 06:45:30;;;;;;;31.33;20.45;;;8.70;99.90;;;;;;5023955;28;20033;-67
2023/02/23 06:47:57;;;;;;;36.22;22.08;;;8.70;99.90;;;;;;5040574;28;20029;-67
2023/02/23 06:50:22;;;;;;;40.25;23.08;;;8.70;99.90;;;;;;5046157;28;20553;-67
2023/02/23 06:52:48;;;;;;;33.20;20.88;;;8.70;99.90;;;;;;5043218;28;20033;-67
2023/02/23 06:55:14;;;;;;;40.42;24.58;;;8.70;99.90;;;;;;5046449;28;20013;-66
2023/02/23 06:57:40;;;;;;;36.08;22.77;;;8.70;99.90;;;;;;5039386;28;20021;-66
2023/02/23 07:00:07;;;;;;;37.88;22.92;;;8.70;99.90;;;;;;5039572;28;20022;-67
2023/02/23 07:02:34;;;;;;;34.65;22.30;;;8.70;99.90;;;;;;5037445;28;20045;-66
2023/02/23 07:04:59;;;;;;;40.72;24.90;;;8.70;99.90;;;;;;5040859;28;20028;-66
2023/02/23 07:07:25;;;;;;;42.25;26.58;;;8.70;99.90;;;;;;5044629;28;20025;-67
2023/02/23 07:09:51;;;;;;;43.03;26.27;;;8.80;99.90;;;;;;5045684;28;20029;-66
2023/02/23 07:12:16;;;;;;;42.03;24.92;;;8.80;99.90;;;;;;5039976;28;20061;-66
2023/02/23 07:14:42;;;;;;;46.10;26.60;;;8.70;99.90;;;;;;5040332;28;20399;-67
2023/02/23 07:17:07;;;;;;;51.83;28.17;;;8.80;99.90;;;;;;5039586;28;20032;-66
2023/02/23 07:19:33;;;;;;;62.03;33.53;;;8.70;99.90;;;;;;5022398;28;20072;-66
2023/02/23 07:21:58;;;;;;;72.80;39.42;;;8.70;99.90;;;;;;5040540;28;20346;-66
2023/02/23 07:24:24;;;;;;;66.07;36.63;;;8.70;99.90;;;;;;5040115;28;20040;-66
2023/02/23 07:26:51;;;;;;;70.53;36.47;;;8.70;99.90;;;;;;5034957;28;20033;-66
2023/02/23 07:29:17;;;;;;;82.15;38.72;;;8.70;99.90;;;;;;5039429;28;20017;-66
2023/02/23 07:31:43;;;;;;;76.40;37.42;;;8.70;99.90;;;;;;5039350;28;20406;-66
2023/02/23 07:34:09;;;;;;;85.25;40.35;;;8.70;99.90;;;;;;5040145;28;20036;-66
2023/02/23 07:36:34;;;;;;;84.28;38.97;;;8.70;99.90;;;;;;5038294;28;20025;-67
2023/02/23 07:39:00;;;;;;;98.10;42.75;;;8.70;99.90;;;;;;5040170;28;20044;-67
2023/02/23 07:41:26;;;;;;;105.32;43.92;;;8.70;99.90;;;;;;5045789;28;20448;-67
2023/02/23 07:43:51;;;;;;;111.50;47.35;;;8.70;99.90;;;;;;5046553;28;20036;-67
2023/02/23 07:46:17;;;;;;;119.57;45.58;;;8.70;99.90;;;;;;5036855;28;20142;-66
2023/02/23 07:48:43;;;;;;;111.72;46.40;;;8.70;99.90;;;;;;5045098;28;20147;-65
2023/02/23 07:51:11;;;;;;;121.47;52.05;;;8.80;99.90;;;;;;5023821;28;20033;-66
2023/02/23 07:53:38;;;;;;;97.38;45.35;;;8.80;99.90;;;;;;5037734;28;20060;-65
2023/02/23 07:56:04;;;;;;;91.93;41.25;;;8.70;99.90;;;;;;5042811;28;20029;-67
2023/02/23 07:58:30;;;;;;;83.78;39.00;;;8.80;99.90;;;;;;5038191;28;20040;-67
2023/02/23 08:00:56;;;;;;;81.20;38.33;;;8.80;99.90;;;;;;5044291;28;20028;-66
2023/02/23 08:03:22;;;;;;;84.90;38.47;;;8.80;99.90;;;;;;5040516;28;20030;-66
2023/02/23 08:05:47;;;;;;;79.00;39.85;;;8.80;99.90;;;;;;5047632;28;20032;-67
2023/02/23 08:08:13;;;;;;;74.95;39.63;;;8.90;99.90;;;;;;5042383;28;20609;-67
2023/02/23 08:10:39;;;;;;;73.57;38.03;;;8.90;99.90;;;;;;5045043;28;20025;-67
2023/02/23 08:13:05;;;;;;;72.32;36.55;;;8.90;99.90;;;;;;5048256;28;20029;-66
2023/02/23 08:15:31;;;;;;;69.93;36.03;;;8.90;99.90;;;;;;5047432;28;20040;-67
2023/02/23 08:17:57;;;;;;;64.88;35.53;;;8.90;99.90;;;;;;5027492;28;20045;-67
2023/02/23 08:20:23;;;;;;;73.20;38.03;;;8.90;99.90;;;;;;5046067;28;20028;-67
2023/02/23 08:22:53;;;;;;;72.05;35.45;;;8.90;99.90;;;;;;5048624;28;20037;-66
2023/02/23 08:25:19;;;;;;;72.13;34.88;;;9.00;99.90;;;;;;5026069;28;20068;-66
2023/02/23 08:27:45;;;;;;;68.75;33.75;;;9.00;99.90;;;;;;5033791;28;20029;-66
2023/02/23 08:30:12;;;;;;;66.88;35.22;;;9.00;99.90;;;;;;5045834;28;20040;-67
2023/02/23 08:32:39;;;;;;;72.65;34.67;;;9.00;99.90;;;;;;5043180;28;20023;-66
2023/02/23 08:35:06;;;;;;;68.20;33.25;;;9.00;99.90;;;;;;5045967;28;20085;-66
2023/02/23 08:37:32;;;;;;;64.50;33.20;;;9.00;99.90;;;;;;5049011;28;20044;-67
2023/02/23 08:39:59;;;;;;;71.03;34.92;;;9.10;99.90;;;;;;5012899;28;20079;-67
2023/02/23 08:42:25;;;;;;;67.05;32.42;;;9.10;99.90;;;;;;5046085;28;20483;-67
2023/02/23 08:44:51;;;;;;;65.22;33.35;;;9.20;99.90;;;;;;5047363;28;20040;-66
2023/02/23 08:47:20;;;;;;;60.35;31.67;;;9.20;99.90;;;;;;5049765;28;20032;-66
2023/02/23 08:49:46;;;;;;;60.25;31.75;;;9.10;99.90;;;;;;5047958;28;20060;-66
2023/02/23 08:52:12;;;;;;;61.60;32.35;;;9.10;99.90;;;;;;5051395;28;20044;-66
2023/02/23 08:54:37;;;;;;;63.33;32.92;;;9.20;99.90;;;;;;5046986;28;20025;-66
2023/02/23 08:57:03;;;;;;;64.00;31.33;;;9.20;99.90;;;;;;5044840;28;20060;-67
2023/02/23 08:59:29;;;;;;;59.13;30.92;;;9.20;99.90;;;;;;5049038;28;20032;-67
2023/02/23 09:01:54;;;;;;;58.97;30.35;;;9.20;99.90;;;;;;5042137;28;20446;-66
2023/02/23 09:04:20;;;;;;;56.33;30.48;;;9.30;99.90;;;;;;5043993;28;20028;-66
2023/02/23 09:06:46;;;;;;;47.42;28.23;;;9.30;99.90;;;;;;5025588;28;20028;-66
2023/02/23 09:09:12;;;;;;;54.13;28.00;;;9.30;99.90;;;;;;5047039;28;20658;-66
2023/02/23 09:11:38;;;;;;;55.88;29.58;;;9.30;99.90;;;;;;5042425;28;20025;-66
2023/02/23 09:14:03;;;;;;;55.22;28.30;;;9.40;99.90;;;;;;5040803;28;20083;-66
2023/02/23 09:16:29;;;;;;;55.95;27.55;;;9.30;99.90;;;;;;5041903;28;20025;-67
2023/02/23 09:18:56;;;;;;;51.55;28.15;;;9.40;99.90;;;;;;5017172;28;20045;-67
2023/02/23 09:21:23;;;;;;;43.60;25.17;;;9.30;99.90;;;;;;5048555;28;20368;-67
2023/02/23 09:23:51;;;;;;;48.75;25.77;;;9.30;99.90;;;;;;5046871;28;20055;-67
2023/02/23 09:26:17;;;;;;;44.55;24.50;;;9.30;99.90;;;;;;5043219;28;20027;-66
2023/02/23 09:28:43;;;;;;;47.45;25.50;;;9.30;99.90;;;;;;5045922;28;20024;-67
2023/02/23 09:31:11;;;;;;;51.25;26.70;;;9.30;99.90;;;;;;5042927;28;20021;-66
2023/02/23 09:33:37;;;;;;;48.10;26.92;;;9.30;99.90;;;;;;5048508;28;20024;-66
2023/02/23 09:36:17;;;;;;;46.97;25.08;;;9.40;99.90;;;;;;5043079;28;20509;-67
2023/02/23 09:38:45;;;;;;;48.17;24.17;;;9.40;99.90;;;;;;5045952;28;20013;-66
2023/02/23 09:41:47;;;;;;;42.00;24.08;;;9.50;99.90;;;;;;5040911;28;20029;-67
2023/02/23 09:44:35;;;;;;;46.08;24.90;;;9.60;99.90;;;;;;5041850;28;20033;-67
2023/02/23 09:47:10;;;;;;;44.83;22.48;;;9.70;99.90;;;;;;5039051;28;20495;-67
2023/02/23 09:49:39;;;;;;;38.85;23.42;;;9.70;99.90;;;;;;5018229;28;20029;-67
2023/02/23 09:52:20;;;;;;;43.33;22.75;;;9.80;99.90;;;;;;5044358;28;20021;-67
2023/02/23 09:54:46;;;;;;;48.03;24.83;;;9.80;99.90;;;;;;5038723;28;20060;-67
2023/02/23 09:57:23;;;;;;;44.25;23.15;;;9.90;99.90;;;;;;5041369;28;20045;-67
2023/02/23 09:59:48;;;;;;;50.72;26.25;;;9.80;99.90;;;;;;5040895;28;20125;-67
2023/02/23 10:02:29;;;;;;;49.83;25.88;;;9.80;99.90;;;;;;5044210;28;20112;-67
2023/02/23 10:05:00;;;;;;;49.70;26.27;;;9.70;99.90;;;;;;5045460;28;20373;-67
2023/02/23 10:07:34;;;;;;;52.30;26.92;;;9.70;99.90;;;;;;5046429;28;20419;-66
2023/02/23 10:10:12;;;;;;;54.42;26.52;;;9.70;99.90;;;;;;5046536;28;20029;-67
2023/02/23 10:12:43;;;;;;;52.42;27.17;;;9.60;99.90;;;;;;5046873;28;20102;-66
2023/02/23 10:15:14;;;;;;;55.83;28.65;;;9.50;99.90;;;;;;5046256;28;20041;-67
2023/02/23 10:18:00;;;;;;;51.97;26.73;;;9.50;99.90;;;;;;5044332;28;20074;-67
2023/02/23 10:20:49;;;;;;;46.33;24.52;;;9.40;99.90;;;;;;5047310;28;20098;-67
2023/02/23 10:23:26;;;;;;;45.92;23.10;;;9.30;99.90;;;;;;5048706;28;20476;-66
2023/02/23 10:25:58;;;;;;;46.95;25.13;;;9.30;99.90;;;;;;5023470;28;20481;-67
2023/02/23 10:28:24;;;;;;;46.55;23.38;;;9.30;99.90;;;;;;5045407;28;20025;-67
2023/02/23 10:30:51;;;;;;;44.03;23.60;;;9.40;99.90;;;;;;5041244;28;20021;-67
2023/02/23 10:33:21;;;;;;;49.05;22.70;;;9.40;99.90;;;;;;5039569;28;20053;-67
2023/02/23 10:35:49;;;;;;;39.47;22.60;;;9.40;99.90;;;;;;5044591;28;20562;-67
2023/02/23 10:38:17;;;;;;;43.10;22.85;;;9.40;99.90;;;;;;5045493;28;20060;-67
2023/02/23 10:40:50;;;;;;;44.17;22.85;;;9.50;99.90;;;;;;5048715;28;20036;-67
2023/02/23 10:43:15;;;;;;;38.40;22.08;;;9.40;99.90;;;;;;5045280;28;20040;-67
2023/02/23 10:45:50;;;;;;;44.28;21.38;;;9.40;99.90;;;;;;5048521;28;20507;-67
2023/02/23 10:48:30;;;;;;;40.80;22.15;;;9.30;99.90;;;;;;5046799;28;20095;-67
2023/02/23 10:51:01;;;;;;;43.13;23.55;;;9.30;99.90;;;;;;5045794;28;20033;-66
2023/02/23 10:53:36;;;;;;;38.72;19.92;;;9.30;99.90;;;;;;5044169;28;20020;-67
2023/02/23 10:56:12;;;;;;;37.95;18.52;;;9.30;99.90;;;;;;5050729;28;20108;-67
2023/02/23 10:58:41;;;;;;;35.72;20.80;;;9.30;99.90;;;;;;5029180;28;20033;-66
2023/02/23 11:01:08;;;;;;;38.05;21.70;;;9.30;99.90;;;;;;5041798;28;20084;-66
2023/02/23 11:03:43;;;;;;;37.33;21.23;;;9.30;99.90;;;;;;5045155;28;20475;-66
2023/02/23 11:06:41;;;;;;;44.88;22.98;;;9.30;99.90;;;;;;5038394;28;20079;-66
2023/02/23 11:09:36;;;;;;;37.00;20.88;;;9.40;99.90;;;;;;5038584;28;20036;-66
2023/02/23 11:12:22;;;;;;;41.45;22.65;;;9.40;99.90;;;;;;5014372;28;20532;-67
2023/02/23 11:14:49;;;;;;;36.90;20.50;;;9.40;99.90;;;;;;5032007;28;20114;-67
2023/02/23 11:17:35;;;;;;;41.15;22.45;;;9.40;99.90;;;;;;5045823;28;20022;-67
2023/02/23 11:20:27;;;;;;;38.35;21.90;;;9.40;99.90;;;;;;5010873;28;20052;-66
2023/02/23 11:22:55;;;;;;;42.38;23.23;;;9.50;99.90;;;;;;5041397;28;20025;-66
2023/02/23 11:25:31;;;;;;;43.08;24.30;;;9.40;99.90;;;;;;5037429;28;20024;-65
2023/02/23 11:27:57;;;;;;;47.88;25.67;;;9.30;99.90;;;;;;5028358;28;20052;-65
2023/02/23 11:30:30;;;;;;;43.80;25.92;;;9.30;99.90;;;;;;5045320;28;20063;-65
2023/02/23 11:32:58;;;;;;;42.08;23.52;;;9.30;99.90;;;;;;5046532;28;20021;-65
2023/02/23 11:35:26;;;;;;;42.45;23.05;;;9.20;99.90;;;;;;5046396;28;20017;-65
2023/02/23 11:37:52;;;;;;;42.50;23.95;;;9.20;99.90;;;;;;5048557;28;20033;-68
2023/02/23 11:40:25;;;;;;;37.35;20.90;;;9.20;99.90;;;;;;5045544;28;20071;-65
2023/02/23 11:42:52;;;;;;;44.00;24.08;;;9.20;99.90;;;;;;5048942;28;20025;-66
2023/02/23 11:45:19;;;;;;;42.60;22.83;;;9.20;99.90;;;;;;5048668;28;20017;-65
2023/02/23 11:47:48;;;;;;;40.38;23.35;;;9.20;99.90;;;;;;5051123;28;20446;-66
2023/02/23 11:50:44;;;;;;;43.58;22.88;;;9.30;99.90;;;;;;5045465;28;20060;-65
2023/02/23 11:53:19;;;;;;;40.38;20.25;;;9.30;99.90;;;;;;5054469;28;20051;-65
2023/02/23 11:55:48;;;;;;;38.97;20.25;;;9.40;99.90;;;;;;5040470;28;20480;-66
2023/02/23 11:58:23;;;;;;;33.17;19.55;;;9.40;99.90;;;;;;5046708;28;20037;-66
2023/02/23 12:00:56;;;;;;;35.75;21.05;;;9.50;99.90;;;;;;5047780;28;20039;-66
2023/02/23 12:03:25;;;;;;;30.25;18.17;;;9.50;99.90;;;;;;5036867;28;20029;-66
2023/02/23 12:05:56;;;;;;;32.10;18.75;;;9.50;99.90;;;;;;5047997;28;20435;-65
2023/02/23 12:08:33;;;;;;;32.72;18.45;;;9.60;99.90;;;;;;5039831;28;20026;-66
2023/02/23 12:11:05;;;;;;;31.52;18.67;;;9.40;99.90;;;;;;5025318;28;20391;-65
2023/02/23 12:13:42;;;;;;;36.53;21.42;;;9.40;99.90;;;;;;5039783;28;20030;-66
2023/02/23 12:16:21;;;;;;;33.83;19.05;;;9.40;99.90;;;;;;5041483;28;20499;-66
2023/02/23 12:19:23;;;;;;;38.45;20.42;;;9.30;99.90;;;;;;5020735;28;20060;-66
2023/02/23 12:21:57;;;;;;;37.30;20.13;;;9.20;99.90;;;;;;5019730;28;20055;-66
2023/02/23 12:24:57;;;;;;;40.65;20.67;;;9.20;99.90;;;;;;5038639;28;20037;-66
2023/02/23 12:27:37;;;;;;;42.13;21.42;;;9.20;99.90;;;;;;5039774;28;20445;-66
2023/02/23 12:30:21;;;;;;;32.28;18.42;;;9.30;99.90;;;;;;5047965;28;20024;-66
2023/02/23 12:33:16;;;;;;;34.70;19.65;;;9.40;99.90;;;;;;5043929;28;20025;-65
2023/02/23 12:36:01;;;;;;;31.73;19.20;;;9.30;99.90;;;;;;5038835;28;20033;-65
2023/02/23 12:38:47;;;;;;;31.63;18.92;;;9.20;99.90;;;;;;5045279;28;20096;-66
2023/02/23 12:41:19;;;;;;;37.10;20.65;;;9.10;99.90;;;;;;5033426;28;20514;-66
2023/02/23 12:43:50;;;;;;;39.97;21.05;;;9.20;99.90;;;;;;5049214;28;20028;-66
2023/02/23 12:46:21;;;;;;;43.10;23.98;;;9.20;99.90;;;;;;5051147;28;20130;-65
2023/02/23 12:48:59;;;;;;;44.50;23.70;;;9.20;99.90;;;;;;5047557;28;20130;-65
2023/02/23 12:51:37;;;;;;;52.95;27.10;;;9.30;99.90;;;;;;5050403;28;20035;-66
2023/02/23 12:54:04;;;;;;;51.53;26.33;;;9.20;99.90;;;;;;5050848;28;20044;-66
2023/02/23 12:56:50;;;;;;;58.22;27.63;;;9.20;99.90;;;;;;5049420;28;20021;-66
2023/02/23 12:59:49;;;;;;;63.70;28.30;;;9.20;99.90;;;;;;5048043;28;20440;-64
2023/02/23 13:02:38;;;;;;;65.28;29.67;;;9.20;99.90;;;;;;5047564;28;20025;-66
2023/02/23 13:05:21;;;;;;;58.38;28.52;;;9.10;99.90;;;;;;5043640;28;20020;-65
2023/02/23 13:07:58;;;;;;;67.10;30.42;;;9.20;99.90;;;;;;5047901;28;20017;-66
2023/02/23 13:10:52;;;;;;;74.07;28.73;;;9.20;99.90;;;;;;5044330;28;20098;-65
2023/02/23 13:13:55;;;;;;;68.97;30.83;;;9.20;99.90;;;;;;5049595;28;20089;-66
2023/02/23 13:16:33;;;;;;;67.32;29.05;;;9.20;99.90;;;;;;5047809;28;20103;-65
2023/02/23 13:19:20;;;;;;;62.58;28.85;;;9.20;99.90;;;;;;5024572;28;20072;-65
2023/02/23 13:22:12;;;;;;;65.53;28.98;;;9.10;99.90;;;;;;5045055;28;20543;-66
2023/02/23 13:24:44;;;;;;;68.32;29.45;;;9.00;99.90;;;;;;5024838;28;20049;-66
2023/02/23 13:27:10;;;;;;;61.13;27.35;;;9.00;99.90;;;;;;5040486;28;20056;-65
2023/02/23 13:29:35;;;;;;;69.15;29.30;;;9.00;99.90;;;;;;5046137;28;20543;-66
2023/02/23 13:32:04;;;;;;;69.85;29.38;;;8.90;99.90;;;;;;5046566;28;20117;-66
2023/02/23 13:34:38;;;;;;;63.70;26.63;;;8.80;99.90;;;;;;5048361;28;20029;-66
2023/02/23 13:37:06;;;;;;;64.90;26.77;;;8.80;99.90;;;;;;5025438;28;20036;-65
2023/02/23 13:39:34;;;;;;;65.63;28.05;;;8.90;99.90;;;;;;5037303;28;20483;-66
2023/02/23 13:42:37;;;;;;;66.63;26.40;;;8.90;99.90;;;;;;5039549;28;20104;-66
2023/02/23 13:45:21;;;;;;;60.15;25.83;;;8.90;99.90;;;;;;5044707;28;20075;-65
2023/02/23 13:48:03;;;;;;;64.78;27.52;;;8.90;99.90;;;;;;5048645;28;20019;-65
2023/02/23 13:50:57;;;;;;;51.47;24.42;;;8.90;99.90;;;;;;5046595;28;20087;-66
2023/02/23 13:53:40;;;;;;;55.95;22.35;;;9.00;99.90;;;;;;5047470;28;20063;-65
2023/02/23 13:56:14;;;;;;;58.35;23.98;;;9.00;99.90;;;;;;5036772;28;20094;-66
2023/02/23 13:58:47;;;;;;;54.65;22.90;;;9.10;99.90;;;;;;5047791;28;20127;-66
2023/02/23 14:01:21;;;;;;;58.10;24.77;;;9.00;99.90;;;;;;5042787;28;20037;-66
2023/02/23 14:03:53;;;;;;;52.03;23.17;;;9.00;99.90;;;;;;5039641;28;20047;-66
2023/02/23 14:06:22;;;;;;;54.33;23.30;;;9.00;99.90;;;;;;5041021;28;20079;-66
2023/02/23 14:09:12;;;;;;;52.42;23.10;;;9.10;99.90;;;;;;5039309;28;20407;-66
2023/02/23 14:11:49;;;;;;;49.17;22.00;;;9.20;99.90;;;;;;5045451;28;20026;-66
2023/02/23 14:14:40;;;;;;;50.15;22.38;;;9.10;99.90;;;;;;5042905;28;20507;-66
2023/02/23 14:17:35;;;;;;;48.72;21.40;;;9.10;99.90;;;;;;5043918;28;20113;-65